Time;durP1;ratioP1;P1;durP2;ratioP2;P2;SDS_P1;SDS_P2;PMS_P1;PMS_P2;Temp;Humidity;BMP_temperature;BMP_pressure;BME280_temperature;BME280_humidity;BME280_pressure;Samples;Min_cycle;Max_cycle;Signal;HPM_P1;HPM_P2
2022/05/06 00:01:05;;;;;;;20.10;18.10;;;12.30;99.90;;;;;;5136120;27;20271;-83
2022/05/06 00:03:31;;;;;;;22.50;18.30;;;12.20;99.90;;;;;;5136004;27;20202;-82
2022/05/06 00:05:58;;;;;;;22.43;18.27;;;12.20;99.90;;;;;;5136095;27;20248;-82
2022/05/06 00:08:25;;;;;;;19.87;17.97;;;12.30;99.90;;;;;;5135871;27;20677;-83
2022/05/06 00:10:52;;;;;;;19.53;17.43;;;12.20;99.90;;;;;;5135937;27;20554;-83
2022/05/06 00:13:18;;;;;;;19.10;17.20;;;12.30;99.90;;;;;;5136021;27;20196;-82
2022/05/06 00:15:47;;;;;;;18.50;16.77;;;12.30;99.90;;;;;;5135747;27;20650;-81
2022/05/06 00:18:13;;;;;;;18.03;16.27;;;12.30;99.90;;;;;;5135729;27;20680;-84
2022/05/06 00:20:41;;;;;;;18.00;16.23;;;12.30;99.90;;;;;;5136555;27;20252;-83
2022/05/06 00:23:07;;;;;;;18.03;16.33;;;12.20;99.90;;;;;;5140532;27;20268;-83
2022/05/06 00:25:34;;;;;;;18.37;16.57;;;12.20;99.90;;;;;;5140092;27;20191;-83
2022/05/06 00:28:01;;;;;;;18.63;16.73;;;12.20;99.90;;;;;;5138356;27;20199;-83
2022/05/06 00:30:27;;;;;;;18.70;16.97;;;12.20;99.90;;;;;;5138410;27;20195;-83
2022/05/06 00:32:55;;;;;;;18.30;16.50;;;12.20;99.90;;;;;;5138609;27;20251;-83
2022/05/06 00:35:22;;;;;;;21.67;17.60;;;12.20;99.90;;;;;;5137798;27;20195;-83
2022/05/06 00:37:48;;;;;;;19.57;17.10;;;12.20;99.90;;;;;;5137661;27;20268;-82
2022/05/06 00:40:15;;;;;;;17.90;16.07;;;12.10;99.90;;;;;;5137169;27;20685;-83
2022/05/06 00:42:42;;;;;;;19.40;17.50;;;12.20;99.90;;;;;;5135018;27;20244;-83
2022/05/06 00:45:10;;;;;;;17.63;15.93;;;12.10;99.90;;;;;;5135190;27;20302;-83
2022/05/06 00:47:36;;;;;;;20.13;16.87;;;12.10;99.90;;;;;;5135596;27;20199;-83
2022/05/06 00:50:06;;;;;;;16.77;15.03;;;12.00;99.90;;;;;;5135514;27;20199;-82
2022/05/06 00:52:33;;;;;;;18.17;16.20;;;12.10;99.90;;;;;;5135392;27;20326;-83
2022/05/06 00:55:00;;;;;;;18.63;16.27;;;12.00;99.90;;;;;;5135522;27;20221;-82
2022/05/06 00:57:27;;;;;;;18.13;16.40;;;12.00;99.90;;;;;;5135830;27;20198;-83
2022/05/06 01:02:38;;;;;;;18.03;15.43;;;11.90;99.90;;;;;;5136278;27;20202;-82
2022/05/06 01:05:09;;;;;;;17.73;16.03;;;11.90;99.90;;;;;;5148440;27;20286;-82
2022/05/06 01:07:37;;;;;;;17.97;14.97;;;11.80;99.90;;;;;;5139581;27;20202;-82
2022/05/06 01:10:05;;;;;;;17.50;15.77;;;11.80;99.90;;;;;;5138643;27;20206;-82
2022/05/06 01:12:31;;;;;;;20.17;15.50;;;11.70;99.90;;;;;;5139080;27;20238;-82
2022/05/06 01:14:58;;;;;;;17.57;15.17;;;11.60;99.90;;;;;;5138146;27;20199;-82
2022/05/06 01:17:25;;;;;;;17.57;14.83;;;11.70;99.90;;;;;;5137364;27;20696;-83
2022/05/06 01:19:52;;;;;;;16.83;14.63;;;11.60;99.90;;;;;;5136174;27;20280;-83
2022/05/06 01:22:20;;;;;;;17.60;14.40;;;11.50;99.90;;;;;;5118499;27;20256;-82
2022/05/06 01:24:46;;;;;;;19.30;14.87;;;11.60;99.90;;;;;;5136350;27;20247;-82
2022/05/06 01:27:17;;;;;;;17.40;15.53;;;11.50;99.90;;;;;;5136601;27;20221;-83
2022/05/06 01:29:46;;;;;;;15.93;14.40;;;11.50;99.90;;;;;;5135329;27;20199;-84
2022/05/06 01:32:15;;;;;;;15.43;13.93;;;11.40;99.90;;;;;;5134453;27;20267;-84
2022/05/06 01:34:43;;;;;;;16.10;14.27;;;11.40;99.90;;;;;;5134268;27;20205;-83
2022/05/06 01:37:12;;;;;;;15.77;14.17;;;11.40;99.90;;;;;;5133872;27;20195;-83
2022/05/06 01:39:43;;;;;;;15.47;13.87;;;11.40;99.90;;;;;;5134495;27;20275;-83
2022/05/06 01:42:12;;;;;;;15.27;13.67;;;11.30;99.90;;;;;;5135094;27;20195;-82
2022/05/06 01:44:42;;;;;;;17.00;13.73;;;11.30;99.90;;;;;;5134783;27;20195;-83
2022/05/06 01:47:15;;;;;;;17.27;14.53;;;11.30;99.90;;;;;;5134203;27;20642;-83
2022/05/06 01:49:44;;;;;;;16.37;14.07;;;11.30;99.90;;;;;;5134039;27;20244;-83
2022/05/06 01:52:16;;;;;;;17.23;13.37;;;11.30;99.90;;;;;;5134034;27;20635;-84
2022/05/06 01:54:45;;;;;;;14.70;13.20;;;11.40;99.90;;;;;;5133973;27;20550;-83
2022/05/06 01:57:11;;;;;;;16.40;13.10;;;11.40;99.90;;;;;;5134084;27;20195;-83
2022/05/06 01:59:38;;;;;;;13.70;12.30;;;11.40;99.90;;;;;;5133943;27;20218;-83
2022/05/06 02:02:05;;;;;;;15.17;12.60;;;11.40;99.90;;;;;;5133788;27;20271;-83
2022/05/06 02:07:16;;;;;;;13.63;12.23;;;11.40;99.90;;;;;;5133901;27;20194;-83
2022/05/06 02:09:44;;;;;;;13.80;12.27;;;11.40;99.90;;;;;;5133813;27;20543;-83
2022/05/06 02:12:11;;;;;;;15.30;12.57;;;11.40;99.90;;;;;;5133741;28;20203;-83
2022/05/06 02:14:38;;;;;;;13.20;11.90;;;11.30;99.90;;;;;;5133740;28;20248;-83
2022/05/06 02:17:05;;;;;;;15.30;11.47;;;11.30;99.90;;;;;;5133649;28;20714;-83
2022/05/06 02:19:32;;;;;;;14.90;11.87;;;11.40;99.90;;;;;;5133719;28;20222;-83
2022/05/06 02:21:59;;;;;;;14.57;12.23;;;11.40;99.90;;;;;;5133750;28;20195;-84
2022/05/06 02:24:25;;;;;;;13.47;11.37;;;11.40;99.90;;;;;;5133732;28;20194;-83
2022/05/06 02:26:53;;;;;;;12.50;11.20;;;11.40;99.90;;;;;;5133541;28;20199;-82
2022/05/06 02:29:20;;;;;;;12.80;11.50;;;11.40;99.90;;;;;;5133439;28;20202;-83
2022/05/06 02:34:31;;;;;;;13.10;11.43;;;11.30;99.90;;;;;;5137936;27;20218;-82
2022/05/06 02:36:58;;;;;;;12.90;11.60;;;11.30;99.90;;;;;;5137604;27;20247;-83
2022/05/06 02:39:25;;;;;;;12.57;11.37;;;11.30;99.90;;;;;;5137687;27;20219;-84
2022/05/06 02:41:54;;;;;;;12.67;11.00;;;11.30;99.90;;;;;;5137531;27;20686;-83
2022/05/06 02:44:21;;;;;;;13.50;11.47;;;11.30;99.90;;;;;;5137738;27;20199;-83
2022/05/06 02:46:47;;;;;;;12.87;10.93;;;11.30;99.90;;;;;;5137722;27;20195;-83
2022/05/06 02:49:14;;;;;;;12.20;10.93;;;11.30;99.90;;;;;;5137315;27;20198;-83
2022/05/06 02:51:41;;;;;;;13.63;10.17;;;11.30;99.90;;;;;;5137475;27;20199;-83
2022/05/06 02:54:07;;;;;;;11.90;10.53;;;11.30;99.90;;;;;;5137278;27;20195;-83
2022/05/06 02:56:34;;;;;;;11.50;10.27;;;11.30;99.90;;;;;;5137174;27;20195;-83
2022/05/06 02:59:02;;;;;;;14.17;10.73;;;11.30;99.90;;;;;;5137362;27;20269;-83
2022/05/06 03:01:29;;;;;;;11.17;10.07;;;11.20;99.90;;;;;;5137435;27;20202;-83
2022/05/06 03:03:56;;;;;;;12.10;10.50;;;11.30;99.90;;;;;;5137362;27;20191;-83
2022/05/06 03:06:23;;;;;;;13.33;10.37;;;11.20;99.90;;;;;;5137142;27;20315;-83
2022/05/06 03:08:49;;;;;;;14.10;10.30;;;11.20;99.90;;;;;;5137011;27;20531;-83
2022/05/06 03:11:16;;;;;;;12.13;10.67;;;11.20;99.90;;;;;;5137311;27;20248;-81
2022/05/06 03:13:42;;;;;;;11.83;9.73;;;11.20;99.90;;;;;;5137076;27;20195;-83
2022/05/06 03:16:10;;;;;;;13.33;10.20;;;11.30;99.90;;;;;;5136966;27;20195;-82
2022/05/06 03:18:37;;;;;;;10.83;9.53;;;11.20;99.90;;;;;;5136951;27;20191;-83
2022/05/06 03:21:04;;;;;;;11.23;9.63;;;11.20;99.90;;;;;;5136644;27;20698;-83
2022/05/06 03:23:30;;;;;;;11.10;9.80;;;11.20;99.90;;;;;;5136772;27;20718;-83
2022/05/06 03:25:57;;;;;;;10.60;9.20;;;11.30;99.90;;;;;;5136635;27;20647;-82
2022/05/06 03:28:24;;;;;;;11.27;9.97;;;11.20;99.90;;;;;;5136679;27;20251;-83
2022/05/06 03:30:52;;;;;;;12.00;10.07;;;11.20;99.90;;;;;;5136819;27;20199;-84
2022/05/06 03:33:20;;;;;;;10.13;9.13;;;11.20;99.90;;;;;;5136618;27;20237;-84
2022/05/06 03:35:46;;;;;;;10.50;9.37;;;11.20;99.90;;;;;;5136506;27;20206;-83
2022/05/06 03:38:13;;;;;;;11.03;8.73;;;11.20;99.90;;;;;;5136207;27;20231;-83
2022/05/06 03:40:40;;;;;;;9.63;8.60;;;11.20;99.90;;;;;;5136404;27;20227;-83
2022/05/06 03:43:07;;;;;;;12.33;9.20;;;11.20;99.90;;;;;;5135893;27;20553;-83
2022/05/06 03:45:36;;;;;;;10.27;9.13;;;11.20;99.90;;;;;;5136335;27;20282;-83
2022/05/06 03:48:02;;;;;;;9.73;8.80;;;11.20;99.90;;;;;;5136244;27;20195;-83
2022/05/06 03:53:16;;;;;;;12.80;9.00;;;11.20;99.90;;;;;;5136295;27;20249;-83
2022/05/06 03:55:43;;;;;;;11.80;8.67;;;11.20;99.90;;;;;;5136222;27;20562;-82
2022/05/06 03:58:09;;;;;;;10.13;8.80;;;11.20;99.90;;;;;;5135821;27;20191;-84
2022/05/06 04:00:36;;;;;;;13.67;8.70;;;11.20;99.90;;;;;;5136043;27;20219;-83
2022/05/06 04:03:03;;;;;;;8.90;8.10;;;11.20;99.90;;;;;;5135990;27;20195;-82
2022/05/06 04:05:32;;;;;;;12.17;8.93;;;11.20;99.90;;;;;;5135952;27;20203;-83
2022/05/06 04:08:00;;;;;;;10.73;8.03;;;11.20;99.90;;;;;;5135854;27;20642;-83
2022/05/06 04:10:27;;;;;;;10.27;8.13;;;11.10;99.90;;;;;;5136005;27;20191;-83
2022/05/06 04:12:54;;;;;;;10.17;8.33;;;11.20;99.90;;;;;;5135903;27;20195;-83
2022/05/06 04:15:21;;;;;;;9.43;8.00;;;11.20;99.90;;;;;;5135749;27;20221;-81
2022/05/06 04:17:47;;;;;;;9.03;8.10;;;11.20;99.90;;;;;;5136557;27;20223;-82
2022/05/06 04:25:44;;;;;;;10.93;8.43;;;11.20;99.90;;;;;;5135888;27;20214;-83
2022/05/06 04:28:10;;;;;;;10.07;8.50;;;11.20;99.90;;;;;;5135492;27;20203;-83
2022/05/06 04:30:37;;;;;;;10.73;8.30;;;11.20;99.90;;;;;;5135936;27;20217;-83
2022/05/06 04:33:04;;;;;;;8.67;7.77;;;11.20;99.90;;;;;;5135765;27;20191;-84
2022/05/06 04:35:31;;;;;;;16.50;8.20;;;11.20;99.90;;;;;;5135938;27;20195;-83
2022/05/06 04:37:57;;;;;;;11.53;7.60;;;11.20;99.90;;;;;;5135579;27;20223;-83
2022/05/06 04:40:25;;;;;;;9.37;7.50;;;11.20;99.90;;;;;;5135231;27;20219;-83
2022/05/06 04:42:52;;;;;;;9.10;7.43;;;11.20;99.90;;;;;;5135395;27;20610;-83
2022/05/06 04:45:19;;;;;;;9.27;7.57;;;11.20;99.90;;;;;;5136035;27;20671;-84
2022/05/06 04:47:45;;;;;;;8.73;7.70;;;11.20;99.90;;;;;;5138306;27;20224;-83
2022/05/06 04:50:12;;;;;;;8.37;7.13;;;11.20;99.90;;;;;;5137875;27;20199;-83
2022/05/06 04:52:39;;;;;;;12.20;9.50;;;11.20;99.90;;;;;;5137569;27;20654;-84
2022/05/06 04:55:07;;;;;;;12.77;8.00;;;11.20;99.90;;;;;;5134298;27;20195;-83
2022/05/06 04:57:34;;;;;;;8.80;7.60;;;11.20;99.90;;;;;;5134922;27;20650;-83
2022/05/06 05:00:01;;;;;;;11.90;8.43;;;11.30;99.90;;;;;;5134946;27;20231;-80
2022/05/06 05:02:28;;;;;;;9.10;7.50;;;11.20;99.90;;;;;;5135447;27;20650;-82
2022/05/06 05:04:57;;;;;;;9.70;7.67;;;11.30;99.90;;;;;;5135415;27;20195;-82
2022/05/06 05:07:24;;;;;;;10.53;7.20;;;11.30;99.90;;;;;;5134875;27;20286;-84
2022/05/06 05:09:50;;;;;;;8.67;7.57;;;11.30;99.90;;;;;;5134971;27;20650;-84
2022/05/06 05:12:17;;;;;;;10.33;7.27;;;11.30;99.90;;;;;;5134802;27;20264;-82
2022/05/06 05:14:45;;;;;;;10.47;8.10;;;11.30;99.90;;;;;;5134703;27;20203;-84
2022/05/06 05:17:12;;;;;;;9.47;7.00;;;11.30;99.90;;;;;;5134699;27;20195;-79
2022/05/06 05:19:39;;;;;;;9.87;6.50;;;11.30;99.90;;;;;;5134330;27;20232;-85
2022/05/06 05:22:06;;;;;;;9.03;7.13;;;11.30;99.90;;;;;;5134178;27;20191;-85
2022/05/06 05:24:33;;;;;;;7.97;6.70;;;11.20;99.90;;;;;;5134572;27;20191;-85
2022/05/06 05:27:00;;;;;;;9.10;6.70;;;11.30;99.90;;;;;;5134755;27;20224;-85
2022/05/06 05:29:26;;;;;;;8.33;6.60;;;11.30;99.90;;;;;;5134707;27;20281;-84
2022/05/06 05:31:55;;;;;;;10.37;7.00;;;11.30;99.90;;;;;;5134213;27;20210;-84
2022/05/06 05:34:22;;;;;;;9.37;6.20;;;11.30;99.90;;;;;;5134542;27;20242;-85
2022/05/06 05:36:49;;;;;;;8.73;6.83;;;11.30;99.90;;;;;;5134322;27;20201;-84
2022/05/06 05:39:16;;;;;;;9.90;6.47;;;11.30;99.90;;;;;;5134137;27;20701;-84
2022/05/06 05:41:43;;;;;;;7.07;6.10;;;11.30;99.90;;;;;;5134526;27;20309;-85
2022/05/06 05:49:39;;;;;;;6.77;6.07;;;11.40;99.90;;;;;;5134341;27;20250;-84
2022/05/06 05:52:06;;;;;;;7.60;6.50;;;11.40;99.90;;;;;;5134394;27;20194;-84
2022/05/06 05:54:32;;;;;;;7.97;6.17;;;11.50;99.90;;;;;;5134322;27;20209;-84
2022/05/06 05:56:59;;;;;;;8.87;5.57;;;11.50;99.90;;;;;;5134306;27;20255;-83
2022/05/06 05:59:26;;;;;;;8.27;6.50;;;11.60;99.90;;;;;;5133897;27;20666;-84
2022/05/06 06:01:52;;;;;;;7.10;5.93;;;11.70;99.90;;;;;;5133913;27;20226;-84
2022/05/06 06:04:20;;;;;;;9.33;6.10;;;11.80;99.90;;;;;;5134298;27;20227;-83
2022/05/06 06:06:48;;;;;;;9.07;5.57;;;11.90;99.90;;;;;;5133820;27;20199;-84
2022/05/06 06:09:15;;;;;;;6.87;5.07;;;12.00;99.90;;;;;;5133780;27;20194;-84
2022/05/06 06:11:42;;;;;;;6.67;5.63;;;12.00;99.90;;;;;;5133731;27;20195;-83
2022/05/06 06:14:08;;;;;;;7.63;5.77;;;12.00;99.90;;;;;;5133410;28;20630;-84
2022/05/06 06:16:35;;;;;;;5.93;5.30;;;12.10;99.90;;;;;;5133682;28;20199;-85
2022/05/06 06:19:01;;;;;;;6.63;5.30;;;12.10;99.90;;;;;;5133828;28;20199;-85
2022/05/06 06:21:29;;;;;;;6.33;5.43;;;12.20;99.90;;;;;;5133773;28;20623;-85
2022/05/06 06:23:56;;;;;;;5.40;4.87;;;12.30;99.90;;;;;;5133871;28;20194;-85
2022/05/06 06:26:23;;;;;;;5.67;4.80;;;12.30;99.90;;;;;;5133716;28;20232;-85
2022/05/06 06:28:49;;;;;;;10.67;4.93;;;12.50;99.90;;;;;;5133528;28;20646;-85
2022/05/06 06:31:16;;;;;;;7.03;5.20;;;12.50;99.90;;;;;;5115251;28;20539;-84
2022/05/06 06:33:43;;;;;;;7.03;4.70;;;12.60;99.90;;;;;;5133589;28;20706;-83
2022/05/06 06:36:10;;;;;;;8.27;4.63;;;12.80;99.90;;;;;;5133674;28;20199;-83
2022/05/06 06:38:38;;;;;;;7.80;4.53;;;12.80;99.90;;;;;;5133322;28;20223;-84
2022/05/06 06:41:05;;;;;;;5.23;4.43;;;12.80;99.90;;;;;;5133778;28;20271;-84
2022/05/06 06:43:32;;;;;;;5.33;4.37;;;12.90;99.90;;;;;;5134066;28;20199;-83
2022/05/06 06:45:59;;;;;;;7.33;4.50;;;13.00;99.90;;;;;;5134249;28;20199;-84
2022/05/06 06:48:25;;;;;;;5.03;4.53;;;13.10;99.90;;;;;;5133888;28;20252;-83
2022/05/06 06:50:53;;;;;;;5.63;5.00;;;13.20;99.90;;;;;;5134020;28;20199;-83
2022/05/06 06:53:20;;;;;;;6.80;4.53;;;13.10;99.90;;;;;;5133807;28;20195;-84
2022/05/06 06:55:49;;;;;;;8.37;5.10;;;13.20;99.90;;;;;;5115297;28;20244;-82
2022/05/06 06:58:15;;;;;;;6.83;4.40;;;13.20;99.90;;;;;;5133849;28;20195;-83
2022/05/06 07:00:43;;;;;;;7.60;4.83;;;13.20;99.90;;;;;;5133622;28;20219;-82
2022/05/06 07:03:09;;;;;;;6.30;4.87;;;13.30;99.90;;;;;;5133621;28;20226;-83
2022/05/06 07:05:36;;;;;;;8.13;4.40;;;13.30;99.90;;;;;;5133637;28;20221;-83
2022/05/06 07:13:30;;;;;;;5.63;4.50;;;13.30;99.90;;;;;;5110484;28;20187;-83
2022/05/06 07:15:56;;;;;;;7.33;4.80;;;13.30;99.90;;;;;;5133376;28;20687;-83
2022/05/06 07:18:23;;;;;;;5.50;4.50;;;13.30;99.90;;;;;;5134085;27;20218;-83
2022/05/06 07:20:50;;;;;;;8.00;4.47;;;13.10;99.90;;;;;;5136998;27;20393;-83
2022/05/06 07:23:16;;;;;;;5.23;4.73;;;13.00;99.90;;;;;;5137402;27;20203;-83
2022/05/06 07:25:43;;;;;;;4.93;4.43;;;13.00;99.90;;;;;;5137200;27;20608;-83
2022/05/06 07:28:11;;;;;;;6.33;4.90;;;12.90;99.90;;;;;;5137572;27;20199;-84
2022/05/06 07:30:38;;;;;;;7.23;4.60;;;12.90;99.90;;;;;;5137510;27;20252;-84
2022/05/06 07:33:04;;;;;;;5.67;4.60;;;12.90;99.90;;;;;;5137899;27;20252;-84
2022/05/06 07:35:31;;;;;;;7.77;4.50;;;13.00;99.90;;;;;;5137986;27;20248;-84
2022/05/06 07:37:58;;;;;;;5.33;4.60;;;13.00;99.90;;;;;;5138097;27;20249;-84
2022/05/06 07:40:24;;;;;;;5.17;4.67;;;13.00;99.90;;;;;;5137527;27;20263;-84
2022/05/06 07:42:51;;;;;;;7.07;4.27;;;13.10;99.90;;;;;;5137181;27;20607;-83
2022/05/06 07:45:20;;;;;;;9.60;4.73;;;13.20;99.90;;;;;;5137720;27;20247;-83
2022/05/06 07:47:46;;;;;;;5.30;4.40;;;13.40;99.90;;;;;;5137708;27;20191;-83
2022/05/06 07:50:13;;;;;;;6.00;4.53;;;13.60;99.90;;;;;;5137393;27;20246;-83
2022/05/06 07:52:40;;;;;;;5.70;4.00;;;13.80;99.90;;;;;;5137220;27;20589;-82
2022/05/06 07:55:10;;;;;;;6.00;4.40;;;13.90;99.90;;;;;;5137748;27;20195;-83
2022/05/06 07:57:36;;;;;;;5.40;4.43;;;14.10;99.90;;;;;;5137868;27;20256;-82
2022/05/06 08:00:04;;;;;;;5.80;4.67;;;14.30;99.90;;;;;;5141122;27;20825;-82
2022/05/06 08:05:32;;;;;;;6.07;4.27;;;14.70;99.90;;;;;;5094347;28;20549;-84
2022/05/06 08:07:59;;;;;;;4.63;4.03;;;14.90;99.90;;;;;;5093191;28;20283;-84
2022/05/06 08:10:25;;;;;;;7.60;4.40;;;15.20;99.90;;;;;;5111183;27;20604;-84
2022/05/06 08:12:52;;;;;;;6.83;4.57;;;15.40;99.90;;;;;;5135984;27;20259;-82
2022/05/06 08:15:19;;;;;;;4.88;3.90;;;15.70;99.90;;;;;;5136158;27;20195;-82
2022/05/06 08:17:47;;;;;;;6.78;4.03;;;15.90;99.90;;;;;;5135848;27;20243;-83
2022/05/06 08:20:13;;;;;;;7.32;3.90;;;16.00;99.90;;;;;;5136153;27;20252;-83
2022/05/06 08:22:40;;;;;;;4.95;3.65;;;16.20;99.90;;;;;;5136038;27;20219;-83
2022/05/06 08:25:08;;;;;;;5.55;3.75;;;16.40;99.90;;;;;;5135809;27;20218;-83
2022/05/06 08:27:37;;;;;;;5.57;3.78;;;16.20;99.00;;;;;;5135687;27;20191;-81
2022/05/06 08:30:06;;;;;;;6.75;3.67;;;16.20;99.80;;;;;;5134948;27;20195;-83
2022/05/06 08:32:33;;;;;;;6.80;4.03;;;16.10;99.00;;;;;;5135891;27;20738;-83
2022/05/06 08:35:01;;;;;;;4.75;3.78;;;16.50;97.90;;;;;;5135734;27;20224;-83
2022/05/06 08:37:27;;;;;;;5.20;3.60;;;16.20;96.50;;;;;;5135476;27;20219;-82
2022/05/06 08:39:54;;;;;;;8.50;4.40;;;16.40;95.90;;;;;;5135601;27;20238;-83
2022/05/06 08:42:22;;;;;;;4.78;3.30;;;16.60;94.50;;;;;;5135422;27;20227;-83
2022/05/06 08:53:05;;;;;;;4.72;3.33;;;17.00;84.70;;;;;;5117599;27;20197;-83
2022/05/06 08:55:32;;;;;;;5.68;3.67;;;16.90;81.90;;;;;;5135437;27;20558;-83
2022/05/06 08:57:59;;;;;;;5.78;3.45;;;17.00;82.80;;;;;;5135371;27;20199;-83
2022/05/06 09:00:28;;;;;;;5.78;3.97;;;17.10;83.30;;;;;;5135241;27;20251;-83
2022/05/06 09:02:54;;;;;;;6.88;3.25;;;17.10;82.80;;;;;;5134900;27;20321;-82
2022/05/06 09:05:23;;;;;;;5.30;3.75;;;17.20;79.40;;;;;;5135243;27;20244;-82
2022/05/06 09:07:57;;;;;;;6.57;4.00;;;17.40;81.80;;;;;;5135140;27;20211;-82
2022/05/06 09:10:24;;;;;;;4.93;3.50;;;17.50;79.30;;;;;;5134948;27;20292;-83
2022/05/06 09:12:55;;;;;;;6.55;3.90;;;17.90;76.00;;;;;;5135335;27;20243;-82
2022/05/06 09:18:08;;;;;;;4.88;3.50;;;18.60;75.30;;;;;;5135031;27;20195;-82
2022/05/06 09:20:37;;;;;;;4.72;3.22;;;18.60;68.30;;;;;;5134906;27;20684;-82
2022/05/06 09:23:23;;;;;;;8.00;3.53;;;19.10;68.90;;;;;;5135859;27;20231;-83
2022/05/06 09:25:51;;;;;;;6.13;3.20;;;19.20;62.10;;;;;;5134418;27;20244;-83
2022/05/06 09:28:24;;;;;;;4.18;3.33;;;19.10;60.60;;;;;;5134410;27;20642;-83
2022/05/06 09:30:59;;;;;;;5.93;3.22;;;19.10;60.00;;;;;;5134684;27;20202;-83
2022/05/06 09:33:26;;;;;;;5.03;4.03;;;19.20;59.90;;;;;;5134613;27;20596;-83
2022/05/06 09:35:55;;;;;;;4.78;3.90;;;19.40;58.40;;;;;;5134533;27;20198;-82
2022/05/06 09:38:22;;;;;;;6.13;3.33;;;19.50;58.80;;;;;;5134252;27;20227;-82
2022/05/06 09:40:49;;;;;;;4.72;3.22;;;19.80;58.20;;;;;;5134242;27;20653;-83
2022/05/06 09:43:17;;;;;;;4.68;3.65;;;19.60;59.70;;;;;;5134179;27;20199;-82
2022/05/06 09:45:45;;;;;;;7.32;3.47;;;20.00;57.90;;;;;;5134408;27;20199;-83
2022/05/06 09:48:13;;;;;;;4.13;3.30;;;20.30;56.30;;;;;;5134426;27;20247;-83
2022/05/06 09:50:41;;;;;;;5.80;3.22;;;20.30;55.80;;;;;;5134439;27;20195;-83
2022/05/06 09:53:11;;;;;;;4.53;3.15;;;20.30;55.60;;;;;;5134034;27;20202;-83
2022/05/06 09:55:39;;;;;;;6.90;3.28;;;20.40;54.90;;;;;;5134003;27;20566;-83
2022/05/06 09:58:08;;;;;;;5.63;3.40;;;20.20;55.30;;;;;;5134743;27;20203;-84
2022/05/06 10:00:35;;;;;;;4.53;3.55;;;20.80;55.60;;;;;;5135411;27;20197;-83
2022/05/06 10:03:02;;;;;;;4.35;3.72;;;21.30;52.60;;;;;;5135855;27;20580;-83
2022/05/06 10:05:33;;;;;;;5.32;3.33;;;20.50;51.00;;;;;;5137205;27;20206;-83
2022/05/06 10:08:03;;;;;;;4.75;3.42;;;20.80;51.30;;;;;;5135980;27;20695;-83
2022/05/06 10:10:34;;;;;;;5.07;3.47;;;21.00;50.70;;;;;;5134305;27;20195;-82
2022/05/06 10:13:05;;;;;;;6.28;3.58;;;20.20;49.90;;;;;;5134153;27;20198;-83
2022/05/06 10:15:33;;;;;;;5.75;3.20;;;20.70;51.30;;;;;;5115514;27;20545;-82
2022/05/06 10:18:02;;;;;;;4.97;3.10;;;21.40;50.20;;;;;;5133766;27;20191;-82
2022/05/06 10:20:51;;;;;;;4.10;3.70;;;21.30;49.60;;;;;;5134180;27;20285;-82
2022/05/06 10:23:19;;;;;;;6.40;3.65;;;21.50;48.20;;;;;;5133778;28;20223;-82
2022/05/06 10:25:52;;;;;;;7.03;3.38;;;21.00;48.40;;;;;;5133673;28;20206;-82
2022/05/06 10:34:30;;;;;;;4.00;3.45;;;21.40;44.40;;;;;;5133593;28;20688;-83
2022/05/06 10:37:00;;;;;;;5.28;3.25;;;21.10;44.10;;;;;;5133644;28;20300;-82
2022/05/06 10:39:28;;;;;;;6.45;3.15;;;21.30;43.30;;;;;;5133755;28;20198;-83
2022/05/06 10:42:04;;;;;;;10.18;2.97;;;21.30;43.60;;;;;;5133503;28;20772;-81
2022/05/06 10:44:36;;;;;;;6.85;4.00;;;21.40;42.70;;;;;;5134050;28;20612;-81
2022/05/06 10:47:04;;;;;;;3.50;3.20;;;21.40;43.70;;;;;;5133542;28;20200;-82
2022/05/06 10:49:47;;;;;;;6.15;3.45;;;21.60;42.60;;;;;;5133279;28;20662;-82
2022/05/06 10:52:54;;;;;;;7.28;4.15;;;22.20;43.20;;;;;;5133542;28;20290;-83
2022/05/06 10:55:22;;;;;;;5.38;4.00;;;22.70;41.10;;;;;;5137157;27;20222;-83
2022/05/06 10:58:05;;;;;;;9.90;3.90;;;22.70;39.80;;;;;;5137347;27;20554;-83
2022/05/06 11:00:37;;;;;;;3.70;3.25;;;22.70;39.80;;;;;;5137651;27;20195;-82
2022/05/06 11:03:04;;;;;;;7.18;3.35;;;22.30;39.50;;;;;;5137546;27;20258;-82
2022/05/06 11:05:32;;;;;;;8.07;3.45;;;21.90;40.80;;;;;;5137636;27;20195;-82
2022/05/06 11:08:00;;;;;;;6.25;3.60;;;22.10;41.60;;;;;;5137288;27;20562;-81
2022/05/06 11:10:29;;;;;;;7.10;3.38;;;22.30;40.10;;;;;;5137362;27;20195;-82
2022/05/06 11:12:58;;;;;;;5.47;3.75;;;22.10;41.60;;;;;;5137813;27;20199;-81
2022/05/06 11:15:29;;;;;;;4.57;3.50;;;22.20;40.00;;;;;;5137457;27;20222;-81
2022/05/06 11:17:58;;;;;;;5.68;3.58;;;21.60;39.70;;;;;;5137158;27;20201;-81
2022/05/06 11:20:27;;;;;;;3.90;3.50;;;21.30;41.10;;;;;;5137133;27;20654;-81
2022/05/06 11:22:56;;;;;;;3.95;3.28;;;21.60;42.10;;;;;;5136952;27;20551;-82
2022/05/06 11:25:24;;;;;;;4.25;3.50;;;22.10;41.90;;;;;;5136943;27;20191;-81
2022/05/06 11:27:51;;;;;;;5.43;3.60;;;22.10;40.80;;;;;;5136795;27;20654;-81
2022/05/06 11:30:20;;;;;;;4.57;3.42;;;22.40;40.30;;;;;;5136945;27;20199;-82
2022/05/06 11:32:54;;;;;;;5.53;3.30;;;22.10;38.20;;;;;;5136799;27;20199;-82
2022/05/06 11:35:25;;;;;;;5.82;3.90;;;22.50;39.50;;;;;;5137149;27;20259;-82
2022/05/06 11:37:52;;;;;;;5.47;3.70;;;23.10;38.70;;;;;;5136829;27;20227;-82
2022/05/06 11:40:36;;;;;;;4.30;3.47;;;23.10;37.10;;;;;;5136892;27;20222;-82
2022/05/06 11:43:20;;;;;;;4.95;3.70;;;23.10;37.00;;;;;;5136522;27;20215;-82
2022/05/06 11:48:41;;;;;;;4.82;3.88;;;23.00;36.30;;;;;;5136698;27;20224;-82
2022/05/06 11:51:10;;;;;;;4.55;3.97;;;23.20;35.90;;;;;;5136503;27;20248;-82
2022/05/06 11:53:40;;;;;;;3.92;3.55;;;23.40;35.80;;;;;;5136454;27;20199;-82
2022/05/06 11:56:07;;;;;;;5.30;4.00;;;23.20;35.80;;;;;;5136567;27;20203;-82
2022/05/06 11:58:34;;;;;;;5.63;4.40;;;23.30;36.50;;;;;;5136341;27;20199;-81
2022/05/06 12:01:03;;;;;;;4.60;4.18;;;23.00;35.80;;;;;;5136179;27;20222;-83
2022/05/06 12:03:29;;;;;;;5.75;4.22;;;23.00;35.80;;;;;;5136020;27;20754;-82
2022/05/06 12:06:04;;;;;;;4.85;4.32;;;22.90;35.40;;;;;;5135663;27;20203;-82
2022/05/06 12:08:33;;;;;;;4.57;4.13;;;23.00;37.10;;;;;;5135880;27;20198;-81
2022/05/06 12:11:01;;;;;;;6.45;4.65;;;22.90;35.80;;;;;;5136091;27;20198;-81
2022/05/06 12:13:32;;;;;;;4.82;4.43;;;22.70;35.90;;;;;;5135969;27;20224;-82
2022/05/06 12:16:08;;;;;;;6.03;4.68;;;22.50;36.20;;;;;;5136049;27;20195;-82
2022/05/06 12:18:35;;;;;;;6.85;3.95;;;22.30;36.20;;;;;;5135855;27;20661;-82
2022/05/06 12:21:16;;;;;;;5.78;4.35;;;22.40;37.30;;;;;;5135709;27;20201;-81
2022/05/06 12:23:51;;;;;;;9.25;4.90;;;22.60;36.80;;;;;;5135779;27;20222;-82
2022/05/06 12:26:36;;;;;;;5.10;4.30;;;22.70;36.80;;;;;;5135399;27;20672;-81
2022/05/06 12:29:17;;;;;;;4.80;4.07;;;22.90;36.30;;;;;;5135581;27;20207;-82
2022/05/06 12:31:45;;;;;;;6.13;3.80;;;23.10;35.40;;;;;;5135537;27;20650;-82
2022/05/06 12:34:12;;;;;;;6.53;4.40;;;22.60;35.40;;;;;;5135628;27;20291;-82
2022/05/06 12:36:39;;;;;;;5.95;4.20;;;21.90;36.00;;;;;;5135474;27;20255;-82
2022/05/06 12:39:19;;;;;;;5.88;4.55;;;22.00;38.70;;;;;;5135436;27;20222;-82
2022/05/06 12:41:48;;;;;;;6.75;4.45;;;22.20;37.20;;;;;;5135125;27;20614;-82
2022/05/06 12:44:17;;;;;;;7.00;4.80;;;22.20;37.80;;;;;;5135374;27;20199;-82
2022/05/06 12:46:45;;;;;;;6.20;4.55;;;22.50;37.10;;;;;;5135245;27;20201;-82
2022/05/06 12:51:57;;;;;;;7.45;4.18;;;22.40;36.70;;;;;;5135157;27;20202;-83
2022/05/06 12:54:25;;;;;;;6.30;4.70;;;22.40;38.20;;;;;;5134972;27;20277;-81
2022/05/06 12:56:52;;;;;;;11.27;4.38;;;22.40;36.40;;;;;;5135100;27;20199;-81
2022/05/06 12:59:19;;;;;;;7.03;4.45;;;22.20;37.10;;;;;;5134667;27;20207;-82
2022/05/06 13:01:47;;;;;;;4.88;3.92;;;22.50;37.50;;;;;;5134878;27;20195;-83
2022/05/06 13:04:14;;;;;;;4.93;4.53;;;22.20;37.40;;;;;;5134335;27;20582;-82
2022/05/06 13:06:41;;;;;;;6.20;4.60;;;22.10;38.50;;;;;;5134719;27;20247;-81
2022/05/06 13:09:08;;;;;;;6.63;5.00;;;22.10;38.50;;;;;;5134900;27;20243;-81
2022/05/06 13:11:35;;;;;;;6.88;4.80;;;21.80;38.90;;;;;;5135148;27;20198;-81
2022/05/06 13:14:02;;;;;;;7.10;5.07;;;21.90;37.90;;;;;;5134930;27;20206;-82
2022/05/06 13:16:29;;;;;;;7.53;4.88;;;21.80;38.00;;;;;;5133850;27;20654;-82
2022/05/06 13:18:57;;;;;;;4.57;4.18;;;22.00;38.60;;;;;;5134885;27;20199;-82
2022/05/06 13:21:23;;;;;;;6.68;4.78;;;22.00;37.70;;;;;;5134604;27;20655;-82
2022/05/06 13:23:50;;;;;;;5.20;4.70;;;21.90;37.30;;;;;;5134686;27;20222;-82
2022/05/06 13:26:17;;;;;;;6.88;5.07;;;22.00;37.30;;;;;;5134602;27;20224;-82
2022/05/06 13:28:44;;;;;;;7.78;5.45;;;22.00;36.80;;;;;;5134557;27;20259;-82
2022/05/06 13:31:10;;;;;;;6.40;5.65;;;21.80;37.50;;;;;;5134457;27;20648;-82
2022/05/06 13:33:38;;;;;;;7.07;5.63;;;21.60;37.40;;;;;;5134262;27;20199;-82
2022/05/06 13:36:06;;;;;;;8.27;5.38;;;21.60;37.50;;;;;;5134326;27;20279;-81
2022/05/06 13:38:33;;;;;;;5.97;5.38;;;21.60;37.40;;;;;;5134670;27;20223;-81